Charles B. Wheeler Downtown Airport
KMKC : now visible

Airfield :











YOU CAN JOIN US ON...

 
LOGIN :

Register | Disclaimer

   EN    FR    IT 

 









Legend :    VFR   Marginal VFR   IFR   Intensive IFR   Very Intensive IFR
Visi :
Ceiling :
>= 8 km
>= 3000ft
5 to 8 km
1000 to 3000 ft
1500m to 5 km
500 to 1000 ft
800 to 1500m
200 to 500 ft
< 800m
< 200 ft
Symbols :   Thunderstorms  Fog  Heavy snow  Heavy precipitations  Wind > 20 kt






- Airport Elevation : 759 ft
- IATA code : MKC


KMKC - Charles B. Wheeler Downtown

CURRENT METAR :
  • 201154Z 06007KT 10SM OVC016 05/01 A3014 RMK AO2 SLP208 T00500011 10067 20050 55000

EXPIRED METARs :
  • 201054Z 08007KT 10SM OVC019 06/01 A3013 RMK AO2 SLP204 T00560006
  • 200954Z 09008KT 10SM OVC020 06/01 A3013 RMK AO2 SLP206 T00610006

TAF KMKC
Valid from the 20 at 12:00 until the 21 at 12:00 UTC


201135Z 2012/2112 10010KT P6SM OVC015
FM201600 VRB05KT P6SM OVC015
TEMPO 2016/2020 OVC005
FM202000 VRB04KT P6SM OVC010
FM210300 VRB04KT 3SM BR BKN250
KZKC FIR / North America



MET'MAP, your aeronautical weather chart ! - Copyright ORBIFLY December 2007 - Disclaimer

ORBIFLY MET'MAP TEAM :

Programming & Development : Alexandra Zaïnal
Concept & original design : Baudouin d'Aumeries
Assistance for programming : Marc-Olivier Méhu
Technical & hardware support : Manuel Goepfert

Contact : metmap@orbifly.com




SOURCES & CREDITS :

   NOAA       Earth
Advisory